Nearby METAR Reports

 

KMLI - Moline/Quad City, Illinois, USA
Distance from station: ENE 4mi, 7km
Updated: 02/17/2020 5:52pm
Fog, Overcast
Fog, Overcast
 Wind from SE
Wind: SE 6 mph , 9 km/h
Temperature: 37°F , 3°C
Wind Chill: 32°F , 0°C
Dew Point: 36°F , 2°C
Humidity: 93%
Barometer: 29.80 inHg , 1009.1 hPa
Summary: Fog
Clouds: Overcast
Visibility: 1/2 mile , 0.8 km
Cloud details: Overcast 200 ft
2020/02/17 23:52 KMLI 172352Z 14005KT 1/2SM R09/P6000FT FG OVC002 03/02 A2980 RMK AO2 SLP096 T00280022 10050 20022 56002 $
KDVN - Davenport/Quad C, Iowa, USA
Distance from station: N 14mi, 22km
Updated: 02/17/2020 6:07pm
Fog, Overcast
Fog, Overcast
 Wind from SE
Wind: SE 9 mph , 15 km/h
Temperature: 37°F , 3°C
Wind Chill: 30°F , -1°C
Dew Point: 36°F , 2°C
Humidity: 93%
Barometer: 29.81 inHg , 1009.5 hPa
Summary: Fog
Clouds: Overcast
Visibility: 1/4 mile , 0.4 km
Cloud details: Overcast 200 ft
2020/02/18 00:07 KDVN 180007Z AUTO 14008KT 1/4SM FG VV002 03/02 A2981 RMK AO2 T00280022
 
KMUT - Muscatine, Iowa, USA
Distance from station: W 29mi, 47km
Updated: 02/17/2020 6:15pm
Fog, Overcast
Fog, Overcast
 Wind from S
Wind: S 5 mph , 7 km/h
Temperature: 39°F , 4°C
Wind Chill: 35°F , 2°C
Dew Point: 39°F , 4°C
Humidity: 100%
Barometer: 29.80 inHg , 1009.1 hPa
Summary: Fog
Clouds: Overcast
Visibility: 1/4 mile , 0.4 km
Cloud details: Overcast 200 ft
2020/02/18 00:15 KMUT 180015Z AUTO 17004KT 1/4SM FG OVC002 04/04 A2980 RMK AO2
KCWI - Clinton Muni, Iowa, USA
Distance from station: NNE 31mi, 50km
Updated: 02/17/2020 6:11pm
Mist, Overcast
Mist, Overcast
 Wind from SE
Wind: SE 9 mph , 15 km/h
Temperature: 36°F , 2°C
Wind Chill: 29°F , -2°C
Dew Point: 36°F , 2°C
Humidity: 100%
Barometer: 29.81 inHg , 1009.5 hPa
Summary: Mist
Clouds: Overcast
Visibility: 1 mile , 2 km
Cloud details: Overcast 200 ft
2020/02/18 00:11 KCWI 180011Z AUTO 14008KT 1SM UP BR OVC002 02/02 A2981 RMK AO2 P0000 FZRANO
 
KGBG - Galesburg, Illinois, USA
Distance from station: SSE 35mi, 56km
Updated: 02/17/2020 6:15pm
Fog, Overcast
Fog, Overcast
 Wind from ESE
Wind: ESE 3 mph , 6 km/h
Temperature: 37°F , 3°C
Dew Point: 36°F , 2°C
Humidity: 93%
Barometer: 29.82 inHg , 1009.8 hPa
Summary: Fog
Clouds: Overcast
Visibility: 1/4 mile , 0.4 km
Cloud details: Overcast 200 ft
2020/02/18 00:15 KGBG 180015Z AUTO 12003KT 1/4SM FG OVC002 03/02 A2982 RMK AO2 T00250018
KSFY - Savanna/Tritown, Illinois, USA
Distance from station: NNE 50mi, 80km
Updated: 02/17/2020 6:15pm
Mist, Overcast
Mist, Overcast
 Wind from calm
Wind: Calm
Temperature: 36°F , 2°C
Dew Point: 34°F , 1°C
Humidity: 93%
Barometer: 29.83 inHg , 1010.2 hPa
Summary: Mist
Clouds: Overcast
Visibility: 2 1/2 miles , 4 km
Cloud details: Overcast 300 ft
2020/02/18 00:15 KSFY 180015Z AUTO 00000KT 2 1/2SM BR OVC003 02/01 A2983 RMK AO2